sensor_id;sensor_type;location;lat;lon;timestamp;P1;durP1;ratioP1;P2;durP2;ratioP2
20449;SDS011;10384;51.940;8.432;2023-11-21T00:01:37;19.97;;;10.37;;
20449;SDS011;10384;51.940;8.432;2023-11-21T00:04:03;20.37;;;10.10;;
20449;SDS011;10384;51.940;8.432;2023-11-21T00:06:29;23.93;;;10.83;;
20449;SDS011;10384;51.940;8.432;2023-11-21T00:08:55;24.50;;;10.53;;
20449;SDS011;10384;51.940;8.432;2023-11-21T00:11:21;24.47;;;11.10;;
20449;SDS011;10384;51.940;8.432;2023-11-21T00:13:48;25.33;;;11.13;;
20449;SDS011;10384;51.940;8.432;2023-11-21T00:16:14;24.70;;;12.23;;
20449;SDS011;10384;51.940;8.432;2023-11-21T00:18:39;26.00;;;12.30;;
20449;SDS011;10384;51.940;8.432;2023-11-21T00:21:05;26.13;;;11.47;;
20449;SDS011;10384;51.940;8.432;2023-11-21T00:23:31;26.23;;;11.70;;
20449;SDS011;10384;51.940;8.432;2023-11-21T00:25:57;23.80;;;11.10;;
20449;SDS011;10384;51.940;8.432;2023-11-21T00:28:24;23.20;;;11.87;;
20449;SDS011;10384;51.940;8.432;2023-11-21T00:30:50;24.33;;;11.20;;
20449;SDS011;10384;51.940;8.432;2023-11-21T00:33:16;20.17;;;10.10;;
20449;SDS011;10384;51.940;8.432;2023-11-21T00:35:41;22.30;;;10.77;;
20449;SDS011;10384;51.940;8.432;2023-11-21T00:38:07;19.73;;;10.47;;
20449;SDS011;10384;51.940;8.432;2023-11-21T00:40:33;27.17;;;10.50;;
20449;SDS011;10384;51.940;8.432;2023-11-21T00:42:59;20.87;;;9.97;;
20449;SDS011;10384;51.940;8.432;2023-11-21T00:45:25;24.13;;;11.07;;
20449;SDS011;10384;51.940;8.432;2023-11-21T00:47:51;20.53;;;10.83;;
20449;SDS011;10384;51.940;8.432;2023-11-21T00:50:17;18.90;;;9.67;;
20449;SDS011;10384;51.940;8.432;2023-11-21T00:52:44;24.07;;;10.70;;
20449;SDS011;10384;51.940;8.432;2023-11-21T00:55:10;22.67;;;10.73;;
20449;SDS011;10384;51.940;8.432;2023-11-21T00:57:36;25.73;;;10.73;;
20449;SDS011;10384;51.940;8.432;2023-11-21T01:00:03;20.00;;;10.67;;
20449;SDS011;10384;51.940;8.432;2023-11-21T01:02:34;22.70;;;10.20;;
20449;SDS011;10384;51.940;8.432;2023-11-21T01:05:00;17.47;;;9.53;;
20449;SDS011;10384;51.940;8.432;2023-11-21T01:07:27;25.77;;;9.60;;
20449;SDS011;10384;51.940;8.432;2023-11-21T01:09:53;22.57;;;9.63;;
20449;SDS011;10384;51.940;8.432;2023-11-21T01:12:19;21.20;;;10.47;;
20449;SDS011;10384;51.940;8.432;2023-11-21T01:14:45;21.13;;;9.77;;
20449;SDS011;10384;51.940;8.432;2023-11-21T01:17:11;20.87;;;9.67;;
20449;SDS011;10384;51.940;8.432;2023-11-21T01:19:37;22.87;;;9.07;;
20449;SDS011;10384;51.940;8.432;2023-11-21T01:22:03;24.07;;;10.30;;
20449;SDS011;10384;51.940;8.432;2023-11-21T01:24:29;24.37;;;10.20;;
20449;SDS011;10384;51.940;8.432;2023-11-21T01:26:54;21.40;;;10.80;;
20449;SDS011;10384;51.940;8.432;2023-11-21T01:29:20;24.67;;;9.80;;
20449;SDS011;10384;51.940;8.432;2023-11-21T01:31:46;21.07;;;9.90;;
20449;SDS011;10384;51.940;8.432;2023-11-21T01:34:12;19.83;;;9.57;;
20449;SDS011;10384;51.940;8.432;2023-11-21T01:36:39;19.63;;;9.83;;
20449;SDS011;10384;51.940;8.432;2023-11-21T01:39:05;23.93;;;10.03;;
20449;SDS011;10384;51.940;8.432;2023-11-21T01:41:33;19.07;;;9.53;;
20449;SDS011;10384;51.940;8.432;2023-11-21T01:44:00;19.63;;;9.80;;
20449;SDS011;10384;51.940;8.432;2023-11-21T01:46:26;19.20;;;10.07;;
20449;SDS011;10384;51.940;8.432;2023-11-21T01:48:52;22.13;;;9.83;;
20449;SDS011;10384;51.940;8.432;2023-11-21T01:51:18;20.67;;;9.33;;
20449;SDS011;10384;51.940;8.432;2023-11-21T01:53:44;19.47;;;9.17;;
20449;SDS011;10384;51.940;8.432;2023-11-21T01:56:11;20.10;;;8.80;;
20449;SDS011;10384;51.940;8.432;2023-11-21T01:58:37;16.77;;;8.93;;
20449;SDS011;10384;51.940;8.432;2023-11-21T02:01:04;15.40;;;8.03;;
20449;SDS011;10384;51.940;8.432;2023-11-21T02:03:30;19.77;;;8.33;;
20449;SDS011;10384;51.940;8.432;2023-11-21T02:05:56;17.93;;;8.40;;
20449;SDS011;10384;51.940;8.432;2023-11-21T02:08:22;21.70;;;8.77;;
20449;SDS011;10384;51.940;8.432;2023-11-21T02:10:48;21.97;;;8.47;;
20449;SDS011;10384;51.940;8.432;2023-11-21T02:13:14;18.70;;;8.20;;
20449;SDS011;10384;51.940;8.432;2023-11-21T02:15:41;16.73;;;7.80;;
20449;SDS011;10384;51.940;8.432;2023-11-21T02:18:07;17.73;;;8.17;;
20449;SDS011;10384;51.940;8.432;2023-11-21T02:20:35;16.37;;;7.67;;
20449;SDS011;10384;51.940;8.432;2023-11-21T02:23:03;19.17;;;7.87;;
20449;SDS011;10384;51.940;8.432;2023-11-21T02:25:30;16.63;;;8.07;;
20449;SDS011;10384;51.940;8.432;2023-11-21T02:27:57;19.80;;;7.40;;
20449;SDS011;10384;51.940;8.432;2023-11-21T02:30:24;18.67;;;8.00;;
20449;SDS011;10384;51.940;8.432;2023-11-21T02:32:50;18.47;;;7.90;;
20449;SDS011;10384;51.940;8.432;2023-11-21T02:35:19;18.93;;;8.30;;
20449;SDS011;10384;51.940;8.432;2023-11-21T02:37:46;22.20;;;9.60;;
20449;SDS011;10384;51.940;8.432;2023-11-21T02:40:12;16.27;;;7.60;;
20449;SDS011;10384;51.940;8.432;2023-11-21T02:42:42;19.57;;;8.70;;
20449;SDS011;10384;51.940;8.432;2023-11-21T02:45:08;19.60;;;8.17;;
20449;SDS011;10384;51.940;8.432;2023-11-21T02:47:37;15.27;;;7.97;;
20449;SDS011;10384;51.940;8.432;2023-11-21T02:50:03;16.77;;;8.57;;
20449;SDS011;10384;51.940;8.432;2023-11-21T02:52:31;18.40;;;7.97;;
20449;SDS011;10384;51.940;8.432;2023-11-21T02:54:58;21.10;;;8.50;;
20449;SDS011;10384;51.940;8.432;2023-11-21T02:57:24;17.00;;;8.50;;
20449;SDS011;10384;51.940;8.432;2023-11-21T02:59:50;14.73;;;7.30;;
20449;SDS011;10384;51.940;8.432;2023-11-21T03:02:16;15.97;;;8.13;;
20449;SDS011;10384;51.940;8.432;2023-11-21T03:04:42;19.03;;;7.93;;
20449;SDS011;10384;51.940;8.432;2023-11-21T03:07:08;16.33;;;7.73;;
20449;SDS011;10384;51.940;8.432;2023-11-21T03:09:35;14.47;;;7.90;;
20449;SDS011;10384;51.940;8.432;2023-11-21T03:12:01;17.70;;;8.57;;
20449;SDS011;10384;51.940;8.432;2023-11-21T03:14:27;23.90;;;9.00;;
20449;SDS011;10384;51.940;8.432;2023-11-21T03:16:53;16.40;;;7.70;;
20449;SDS011;10384;51.940;8.432;2023-11-21T03:19:19;15.93;;;7.77;;
20449;SDS011;10384;51.940;8.432;2023-11-21T03:21:45;13.87;;;8.20;;
20449;SDS011;10384;51.940;8.432;2023-11-21T03:24:11;17.03;;;7.37;;
20449;SDS011;10384;51.940;8.432;2023-11-21T03:26:37;18.73;;;8.33;;
20449;SDS011;10384;51.940;8.432;2023-11-21T03:29:03;15.37;;;8.00;;
20449;SDS011;10384;51.940;8.432;2023-11-21T03:31:29;18.03;;;8.40;;
20449;SDS011;10384;51.940;8.432;2023-11-21T03:33:56;20.07;;;8.17;;
20449;SDS011;10384;51.940;8.432;2023-11-21T03:36:22;17.03;;;8.10;;
20449;SDS011;10384;51.940;8.432;2023-11-21T03:38:50;17.10;;;7.77;;
20449;SDS011;10384;51.940;8.432;2023-11-21T03:41:16;16.33;;;7.47;;
20449;SDS011;10384;51.940;8.432;2023-11-21T03:43:42;14.03;;;7.37;;
20449;SDS011;10384;51.940;8.432;2023-11-21T03:46:08;17.90;;;7.53;;
20449;SDS011;10384;51.940;8.432;2023-11-21T03:48:34;18.23;;;7.40;;
20449;SDS011;10384;51.940;8.432;2023-11-21T03:51:00;16.97;;;8.03;;
20449;SDS011;10384;51.940;8.432;2023-11-21T03:53:26;15.90;;;6.80;;
20449;SDS011;10384;51.940;8.432;2023-11-21T03:55:52;16.30;;;8.00;;
20449;SDS011;10384;51.940;8.432;2023-11-21T03:58:18;17.10;;;7.97;;
20449;SDS011;10384;51.940;8.432;2023-11-21T04:00:44;18.20;;;8.23;;
20449;SDS011;10384;51.940;8.432;2023-11-21T04:03:10;17.73;;;8.10;;
20449;SDS011;10384;51.940;8.432;2023-11-21T04:05:36;22.03;;;8.07;;
20449;SDS011;10384;51.940;8.432;2023-11-21T04:08:02;17.87;;;7.77;;
20449;SDS011;10384;51.940;8.432;2023-11-21T04:10:28;20.43;;;8.73;;
20449;SDS011;10384;51.940;8.432;2023-11-21T04:12:54;16.83;;;8.37;;
20449;SDS011;10384;51.940;8.432;2023-11-21T04:15:20;17.47;;;7.77;;
20449;SDS011;10384;51.940;8.432;2023-11-21T04:17:46;18.83;;;8.90;;
20449;SDS011;10384;51.940;8.432;2023-11-21T04:20:12;26.17;;;9.73;;
20449;SDS011;10384;51.940;8.432;2023-11-21T04:22:39;19.43;;;8.97;;
20449;SDS011;10384;51.940;8.432;2023-11-21T04:25:06;20.63;;;8.73;;
20449;SDS011;10384;51.940;8.432;2023-11-21T04:27:32;19.37;;;8.73;;
20449;SDS011;10384;51.940;8.432;2023-11-21T04:29:59;22.43;;;9.60;;
20449;SDS011;10384;51.940;8.432;2023-11-21T04:32:25;19.43;;;9.00;;
20449;SDS011;10384;51.940;8.432;2023-11-21T04:34:51;19.93;;;9.83;;
20449;SDS011;10384;51.940;8.432;2023-11-21T04:37:17;21.00;;;9.53;;
20449;SDS011;10384;51.940;8.432;2023-11-21T04:39:43;24.83;;;9.53;;
20449;SDS011;10384;51.940;8.432;2023-11-21T04:42:09;21.10;;;10.37;;
20449;SDS011;10384;51.940;8.432;2023-11-21T04:44:35;20.47;;;9.63;;
20449;SDS011;10384;51.940;8.432;2023-11-21T04:47:01;19.43;;;10.00;;
20449;SDS011;10384;51.940;8.432;2023-11-21T04:49:29;25.03;;;10.13;;
20449;SDS011;10384;51.940;8.432;2023-11-21T04:51:55;23.03;;;10.67;;
20449;SDS011;10384;51.940;8.432;2023-11-21T04:54:21;22.60;;;10.97;;
20449;SDS011;10384;51.940;8.432;2023-11-21T04:56:47;25.20;;;10.40;;
20449;SDS011;10384;51.940;8.432;2023-11-21T04:59:13;21.77;;;10.50;;
20449;SDS011;10384;51.940;8.432;2023-11-21T05:01:39;26.07;;;11.17;;
20449;SDS011;10384;51.940;8.432;2023-11-21T05:04:05;19.90;;;11.17;;
20449;SDS011;10384;51.940;8.432;2023-11-21T05:06:31;25.83;;;11.00;;
20449;SDS011;10384;51.940;8.432;2023-11-21T05:08:57;21.07;;;11.80;;
20449;SDS011;10384;51.940;8.432;2023-11-21T05:11:24;24.63;;;11.83;;
20449;SDS011;10384;51.940;8.432;2023-11-21T05:13:50;21.03;;;11.33;;
20449;SDS011;10384;51.940;8.432;2023-11-21T05:16:17;23.43;;;10.80;;
20449;SDS011;10384;51.940;8.432;2023-11-21T05:18:43;27.13;;;11.73;;
20449;SDS011;10384;51.940;8.432;2023-11-21T05:21:09;22.53;;;11.00;;
20449;SDS011;10384;51.940;8.432;2023-11-21T05:23:35;19.10;;;10.37;;
20449;SDS011;10384;51.940;8.432;2023-11-21T05:26:02;23.77;;;10.93;;
20449;SDS011;10384;51.940;8.432;2023-11-21T05:28:28;23.73;;;10.53;;
20449;SDS011;10384;51.940;8.432;2023-11-21T05:30:54;23.63;;;10.63;;
20449;SDS011;10384;51.940;8.432;2023-11-21T05:33:20;24.40;;;11.07;;
20449;SDS011;10384;51.940;8.432;2023-11-21T05:35:46;21.93;;;10.50;;
20449;SDS011;10384;51.940;8.432;2023-11-21T05:38:15;26.93;;;11.83;;
20449;SDS011;10384;51.940;8.432;2023-11-21T05:40:41;27.23;;;10.33;;
20449;SDS011;10384;51.940;8.432;2023-11-21T05:43:09;22.40;;;11.73;;
20449;SDS011;10384;51.940;8.432;2023-11-21T05:45:34;22.10;;;11.03;;
20449;SDS011;10384;51.940;8.432;2023-11-21T05:48:00;24.43;;;10.97;;
20449;SDS011;10384;51.940;8.432;2023-11-21T05:50:27;21.10;;;11.67;;
20449;SDS011;10384;51.940;8.432;2023-11-21T05:52:53;22.03;;;10.70;;
20449;SDS011;10384;51.940;8.432;2023-11-21T05:55:22;27.27;;;11.53;;
20449;SDS011;10384;51.940;8.432;2023-11-21T05:57:50;25.33;;;10.97;;
20449;SDS011;10384;51.940;8.432;2023-11-21T06:00:16;20.07;;;9.90;;
20449;SDS011;10384;51.940;8.432;2023-11-21T06:02:50;21.47;;;10.50;;
20449;SDS011;10384;51.940;8.432;2023-11-21T06:05:17;22.00;;;10.93;;
20449;SDS011;10384;51.940;8.432;2023-11-21T06:07:44;25.27;;;10.80;;
20449;SDS011;10384;51.940;8.432;2023-11-21T06:10:10;22.33;;;10.63;;
20449;SDS011;10384;51.940;8.432;2023-11-21T06:12:39;19.00;;;9.60;;
20449;SDS011;10384;51.940;8.432;2023-11-21T06:15:07;26.73;;;10.93;;
20449;SDS011;10384;51.940;8.432;2023-11-21T06:17:34;21.97;;;10.13;;
20449;SDS011;10384;51.940;8.432;2023-11-21T06:20:04;21.83;;;10.20;;
20449;SDS011;10384;51.940;8.432;2023-11-21T06:22:37;22.20;;;10.87;;
20449;SDS011;10384;51.940;8.432;2023-11-21T06:25:04;21.10;;;10.63;;
20449;SDS011;10384;51.940;8.432;2023-11-21T06:27:32;24.83;;;11.33;;
20449;SDS011;10384;51.940;8.432;2023-11-21T06:29:59;25.37;;;11.13;;
20449;SDS011;10384;51.940;8.432;2023-11-21T06:32:25;21.37;;;10.20;;
20449;SDS011;10384;51.940;8.432;2023-11-21T06:34:51;19.17;;;10.03;;
20449;SDS011;10384;51.940;8.432;2023-11-21T06:37:19;18.60;;;9.73;;
20449;SDS011;10384;51.940;8.432;2023-11-21T06:39:48;21.57;;;9.73;;
20449;SDS011;10384;51.940;8.432;2023-11-21T06:42:14;19.80;;;10.00;;
20449;SDS011;10384;51.940;8.432;2023-11-21T06:44:40;26.33;;;11.90;;
20449;SDS011;10384;51.940;8.432;2023-11-21T06:47:06;27.07;;;11.93;;
20449;SDS011;10384;51.940;8.432;2023-11-21T06:49:32;23.00;;;11.47;;
20449;SDS011;10384;51.940;8.432;2023-11-21T06:51:58;28.33;;;11.40;;
20449;SDS011;10384;51.940;8.432;2023-11-21T06:54:24;21.67;;;11.13;;
20449;SDS011;10384;51.940;8.432;2023-11-21T06:56:50;29.07;;;11.70;;
20449;SDS011;10384;51.940;8.432;2023-11-21T06:59:18;23.47;;;11.43;;
20449;SDS011;10384;51.940;8.432;2023-11-21T07:01:44;26.83;;;11.50;;
20449;SDS011;10384;51.940;8.432;2023-11-21T07:04:10;26.27;;;11.90;;
20449;SDS011;10384;51.940;8.432;2023-11-21T07:06:36;24.57;;;11.77;;
20449;SDS011;10384;51.940;8.432;2023-11-21T07:09:02;32.83;;;13.13;;
20449;SDS011;10384;51.940;8.432;2023-11-21T07:11:28;30.97;;;12.10;;
20449;SDS011;10384;51.940;8.432;2023-11-21T07:13:54;32.17;;;12.10;;
20449;SDS011;10384;51.940;8.432;2023-11-21T07:16:21;29.10;;;12.57;;
20449;SDS011;10384;51.940;8.432;2023-11-21T07:18:48;31.03;;;12.40;;
20449;SDS011;10384;51.940;8.432;2023-11-21T07:21:14;38.90;;;12.67;;
20449;SDS011;10384;51.940;8.432;2023-11-21T07:23:41;30.03;;;12.00;;
20449;SDS011;10384;51.940;8.432;2023-11-21T07:26:07;32.77;;;13.03;;
20449;SDS011;10384;51.940;8.432;2023-11-21T07:28:35;34.73;;;13.00;;
20449;SDS011;10384;51.940;8.432;2023-11-21T07:31:01;32.30;;;12.27;;
20449;SDS011;10384;51.940;8.432;2023-11-21T07:33:28;32.87;;;11.73;;
20449;SDS011;10384;51.940;8.432;2023-11-21T07:35:54;31.77;;;13.10;;
20449;SDS011;10384;51.940;8.432;2023-11-21T07:38:20;29.93;;;12.40;;
20449;SDS011;10384;51.940;8.432;2023-11-21T07:40:46;33.10;;;12.70;;
20449;SDS011;10384;51.940;8.432;2023-11-21T07:43:12;27.63;;;12.13;;
20449;SDS011;10384;51.940;8.432;2023-11-21T07:45:38;26.57;;;11.57;;
20449;SDS011;10384;51.940;8.432;2023-11-21T07:48:04;31.57;;;12.43;;
20449;SDS011;10384;51.940;8.432;2023-11-21T07:50:31;30.97;;;11.93;;
20449;SDS011;10384;51.940;8.432;2023-11-21T07:52:58;32.17;;;12.57;;
20449;SDS011;10384;51.940;8.432;2023-11-21T07:55:24;38.57;;;12.70;;
20449;SDS011;10384;51.940;8.432;2023-11-21T07:57:50;28.57;;;12.33;;
20449;SDS011;10384;51.940;8.432;2023-11-21T08:00:16;36.87;;;12.97;;
20449;SDS011;10384;51.940;8.432;2023-11-21T08:02:42;29.43;;;12.37;;
20449;SDS011;10384;51.940;8.432;2023-11-21T08:05:10;33.40;;;12.90;;
20449;SDS011;10384;51.940;8.432;2023-11-21T08:07:37;30.17;;;12.77;;
20449;SDS011;10384;51.940;8.432;2023-11-21T08:10:03;29.07;;;11.97;;
20449;SDS011;10384;51.940;8.432;2023-11-21T08:12:30;30.70;;;13.20;;
20449;SDS011;10384;51.940;8.432;2023-11-21T08:14:56;28.40;;;12.40;;
20449;SDS011;10384;51.940;8.432;2023-11-21T08:17:22;25.83;;;11.60;;
20449;SDS011;10384;51.940;8.432;2023-11-21T08:19:48;28.60;;;11.93;;
20449;SDS011;10384;51.940;8.432;2023-11-21T08:22:16;26.73;;;11.97;;
20449;SDS011;10384;51.940;8.432;2023-11-21T08:24:43;27.70;;;11.83;;
20449;SDS011;10384;51.940;8.432;2023-11-21T08:27:09;36.77;;;13.23;;
20449;SDS011;10384;51.940;8.432;2023-11-21T08:29:35;32.70;;;11.77;;
20449;SDS011;10384;51.940;8.432;2023-11-21T08:32:01;31.73;;;13.03;;
20449;SDS011;10384;51.940;8.432;2023-11-21T08:34:27;31.67;;;12.40;;
20449;SDS011;10384;51.940;8.432;2023-11-21T08:36:54;32.00;;;11.70;;
20449;SDS011;10384;51.940;8.432;2023-11-21T08:39:20;32.67;;;13.30;;
20449;SDS011;10384;51.940;8.432;2023-11-21T08:41:49;30.10;;;13.40;;
20449;SDS011;10384;51.940;8.432;2023-11-21T08:44:15;31.67;;;12.60;;
20449;SDS011;10384;51.940;8.432;2023-11-21T08:46:43;31.07;;;13.73;;
20449;SDS011;10384;51.940;8.432;2023-11-21T08:49:10;28.10;;;12.03;;
20449;SDS011;10384;51.940;8.432;2023-11-21T08:51:36;26.97;;;11.13;;
20449;SDS011;10384;51.940;8.432;2023-11-21T08:54:02;30.23;;;11.67;;
20449;SDS011;10384;51.940;8.432;2023-11-21T08:56:32;30.80;;;12.07;;
20449;SDS011;10384;51.940;8.432;2023-11-21T08:58:58;28.37;;;11.83;;
20449;SDS011;10384;51.940;8.432;2023-11-21T09:01:27;31.87;;;11.87;;
20449;SDS011;10384;51.940;8.432;2023-11-21T09:03:53;30.17;;;11.80;;
20449;SDS011;10384;51.940;8.432;2023-11-21T09:06:19;27.57;;;10.60;;
20449;SDS011;10384;51.940;8.432;2023-11-21T09:08:45;30.27;;;10.63;;
20449;SDS011;10384;51.940;8.432;2023-11-21T09:11:11;28.10;;;11.47;;
20449;SDS011;10384;51.940;8.432;2023-11-21T09:13:37;28.60;;;11.33;;
20449;SDS011;10384;51.940;8.432;2023-11-21T09:16:03;26.43;;;10.27;;
20449;SDS011;10384;51.940;8.432;2023-11-21T09:18:29;32.03;;;10.97;;
20449;SDS011;10384;51.940;8.432;2023-11-21T09:20:55;30.83;;;10.83;;
20449;SDS011;10384;51.940;8.432;2023-11-21T09:23:24;27.40;;;10.50;;
20449;SDS011;10384;51.940;8.432;2023-11-21T09:25:50;27.67;;;11.33;;
20449;SDS011;10384;51.940;8.432;2023-11-21T09:28:17;27.03;;;10.30;;
20449;SDS011;10384;51.940;8.432;2023-11-21T09:30:43;40.23;;;12.70;;
20449;SDS011;10384;51.940;8.432;2023-11-21T09:33:09;33.63;;;12.73;;
20449;SDS011;10384;51.940;8.432;2023-11-21T09:35:38;30.73;;;11.93;;
20449;SDS011;10384;51.940;8.432;2023-11-21T09:38:04;28.70;;;10.17;;
20449;SDS011;10384;51.940;8.432;2023-11-21T09:40:36;33.40;;;11.43;;
20449;SDS011;10384;51.940;8.432;2023-11-21T09:43:09;29.23;;;9.13;;
20449;SDS011;10384;51.940;8.432;2023-11-21T09:45:41;27.70;;;8.50;;
20449;SDS011;10384;51.940;8.432;2023-11-21T09:48:10;27.80;;;8.33;;
20449;SDS011;10384;51.940;8.432;2023-11-21T09:50:37;23.37;;;8.43;;
20449;SDS011;10384;51.940;8.432;2023-11-21T09:53:07;25.90;;;8.93;;
20449;SDS011;10384;51.940;8.432;2023-11-21T09:55:44;28.30;;;9.67;;
20449;SDS011;10384;51.940;8.432;2023-11-21T09:58:11;26.17;;;9.17;;
20449;SDS011;10384;51.940;8.432;2023-11-21T10:03:06;30.07;;;8.90;;
20449;SDS011;10384;51.940;8.432;2023-11-21T10:05:33;29.80;;;14.23;;
20449;SDS011;10384;51.940;8.432;2023-11-21T10:07:59;30.93;;;11.47;;
20449;SDS011;10384;51.940;8.432;2023-11-21T10:10:26;26.90;;;11.80;;
20449;SDS011;10384;51.940;8.432;2023-11-21T10:12:57;26.30;;;8.57;;
20449;SDS011;10384;51.940;8.432;2023-11-21T10:15:24;30.27;;;11.63;;
20449;SDS011;10384;51.940;8.432;2023-11-21T10:17:50;25.47;;;11.80;;
20449;SDS011;10384;51.940;8.432;2023-11-21T10:20:18;16.10;;;6.30;;
20449;SDS011;10384;51.940;8.432;2023-11-21T10:22:44;14.90;;;6.03;;
20449;SDS011;10384;51.940;8.432;2023-11-21T10:25:10;12.93;;;5.47;;
20449;SDS011;10384;51.940;8.432;2023-11-21T10:27:39;12.97;;;5.87;;
20449;SDS011;10384;51.940;8.432;2023-11-21T10:30:06;15.97;;;7.57;;
20449;SDS011;10384;51.940;8.432;2023-11-21T10:32:41;19.70;;;10.43;;
20449;SDS011;10384;51.940;8.432;2023-11-21T10:35:08;25.27;;;9.47;;
20449;SDS011;10384;51.940;8.432;2023-11-21T10:37:37;10.37;;;4.67;;
20449;SDS011;10384;51.940;8.432;2023-11-21T10:40:08;15.67;;;7.00;;
20449;SDS011;10384;51.940;8.432;2023-11-21T10:42:40;16.17;;;6.63;;
20449;SDS011;10384;51.940;8.432;2023-11-21T10:45:07;18.50;;;7.73;;
20449;SDS011;10384;51.940;8.432;2023-11-21T10:47:40;23.80;;;11.83;;
20449;SDS011;10384;51.940;8.432;2023-11-21T10:50:06;19.33;;;8.40;;
20449;SDS011;10384;51.940;8.432;2023-11-21T10:52:35;17.40;;;8.07;;
20449;SDS011;10384;51.940;8.432;2023-11-21T10:55:10;13.13;;;5.27;;
20449;SDS011;10384;51.940;8.432;2023-11-21T10:57:41;15.07;;;6.40;;
20449;SDS011;10384;51.940;8.432;2023-11-21T11:00:07;13.17;;;5.07;;
20449;SDS011;10384;51.940;8.432;2023-11-21T11:02:37;10.87;;;5.03;;
20449;SDS011;10384;51.940;8.432;2023-11-21T11:05:04;10.00;;;4.80;;
20449;SDS011;10384;51.940;8.432;2023-11-21T11:07:31;11.80;;;5.47;;
20449;SDS011;10384;51.940;8.432;2023-11-21T11:09:59;8.50;;;3.80;;
20449;SDS011;10384;51.940;8.432;2023-11-21T11:12:25;9.00;;;3.67;;
20449;SDS011;10384;51.940;8.432;2023-11-21T11:14:53;9.70;;;3.93;;
20449;SDS011;10384;51.940;8.432;2023-11-21T11:17:19;6.83;;;3.37;;
20449;SDS011;10384;51.940;8.432;2023-11-21T11:19:46;12.60;;;4.73;;
20449;SDS011;10384;51.940;8.432;2023-11-21T11:22:29;12.20;;;4.50;;
20449;SDS011;10384;51.940;8.432;2023-11-21T11:25:03;7.13;;;3.43;;
20449;SDS011;10384;51.940;8.432;2023-11-21T11:30:21;7.50;;;3.87;;
20449;SDS011;10384;51.940;8.432;2023-11-21T11:32:56;7.70;;;3.20;;
20449;SDS011;10384;51.940;8.432;2023-11-21T11:38:08;4.83;;;2.50;;
20449;SDS011;10384;51.940;8.432;2023-11-21T11:40:44;10.03;;;3.37;;
20449;SDS011;10384;51.940;8.432;2023-11-21T11:43:10;8.00;;;2.93;;
20449;SDS011;10384;51.940;8.432;2023-11-21T11:45:36;6.13;;;3.43;;
20449;SDS011;10384;51.940;8.432;2023-11-21T11:48:06;6.17;;;2.70;;
20449;SDS011;10384;51.940;8.432;2023-11-21T11:50:32;5.63;;;2.93;;
20449;SDS011;10384;51.940;8.432;2023-11-21T11:53:12;8.27;;;4.10;;
20449;SDS011;10384;51.940;8.432;2023-11-21T11:55:38;10.57;;;4.37;;
20449;SDS011;10384;51.940;8.432;2023-11-21T11:58:05;10.93;;;3.40;;
20449;SDS011;10384;51.940;8.432;2023-11-21T12:03:00;8.60;;;3.60;;
20449;SDS011;10384;51.940;8.432;2023-11-21T12:05:28;11.13;;;3.70;;
20449;SDS011;10384;51.940;8.432;2023-11-21T12:07:56;9.40;;;3.90;;
20449;SDS011;10384;51.940;8.432;2023-11-21T12:10:32;9.67;;;3.43;;
20449;SDS011;10384;51.940;8.432;2023-11-21T12:13:02;10.50;;;4.77;;
20449;SDS011;10384;51.940;8.432;2023-11-21T12:15:28;10.60;;;5.07;;
20449;SDS011;10384;51.940;8.432;2023-11-21T12:17:56;10.47;;;4.43;;
20449;SDS011;10384;51.940;8.432;2023-11-21T12:20:23;9.13;;;4.17;;
20449;SDS011;10384;51.940;8.432;2023-11-21T12:22:53;10.17;;;4.70;;
20449;SDS011;10384;51.940;8.432;2023-11-21T12:25:24;13.00;;;4.67;;
20449;SDS011;10384;51.940;8.432;2023-11-21T12:27:53;10.57;;;4.73;;
20449;SDS011;10384;51.940;8.432;2023-11-21T12:30:20;10.37;;;4.93;;
20449;SDS011;10384;51.940;8.432;2023-11-21T12:32:53;11.27;;;5.57;;
20449;SDS011;10384;51.940;8.432;2023-11-21T12:35:21;16.93;;;5.73;;
20449;SDS011;10384;51.940;8.432;2023-11-21T12:37:47;12.57;;;5.30;;
20449;SDS011;10384;51.940;8.432;2023-11-21T12:40:14;11.93;;;5.83;;
20449;SDS011;10384;51.940;8.432;2023-11-21T12:43:01;12.60;;;5.70;;
20449;SDS011;10384;51.940;8.432;2023-11-21T12:45:29;16.27;;;5.40;;
20449;SDS011;10384;51.940;8.432;2023-11-21T12:47:56;12.47;;;5.33;;
20449;SDS011;10384;51.940;8.432;2023-11-21T12:50:25;11.60;;;5.70;;
20449;SDS011;10384;51.940;8.432;2023-11-21T12:53:00;14.63;;;5.10;;
20449;SDS011;10384;51.940;8.432;2023-11-21T12:55:29;17.33;;;5.80;;
20449;SDS011;10384;51.940;8.432;2023-11-21T12:57:55;18.33;;;6.63;;
20449;SDS011;10384;51.940;8.432;2023-11-21T13:00:29;16.03;;;5.97;;
20449;SDS011;10384;51.940;8.432;2023-11-21T13:02:57;15.37;;;6.03;;
20449;SDS011;10384;51.940;8.432;2023-11-21T13:05:33;11.97;;;5.10;;
20449;SDS011;10384;51.940;8.432;2023-11-21T13:08:01;13.50;;;5.87;;
20449;SDS011;10384;51.940;8.432;2023-11-21T13:10:29;11.23;;;4.83;;
20449;SDS011;10384;51.940;8.432;2023-11-21T13:12:59;12.47;;;5.23;;
20449;SDS011;10384;51.940;8.432;2023-11-21T13:15:27;10.90;;;5.50;;
20449;SDS011;10384;51.940;8.432;2023-11-21T13:17:53;11.60;;;5.70;;
20449;SDS011;10384;51.940;8.432;2023-11-21T13:20:22;12.57;;;5.23;;
20449;SDS011;10384;51.940;8.432;2023-11-21T13:22:49;14.47;;;5.63;;
20449;SDS011;10384;51.940;8.432;2023-11-21T13:25:19;9.83;;;4.40;;
20449;SDS011;10384;51.940;8.432;2023-11-21T13:27:45;11.93;;;5.30;;
20449;SDS011;10384;51.940;8.432;2023-11-21T13:30:12;12.17;;;4.63;;
20449;SDS011;10384;51.940;8.432;2023-11-21T13:32:40;9.40;;;4.80;;
20449;SDS011;10384;51.940;8.432;2023-11-21T13:35:06;10.53;;;3.90;;
20449;SDS011;10384;51.940;8.432;2023-11-21T13:37:37;8.60;;;4.17;;
20449;SDS011;10384;51.940;8.432;2023-11-21T13:40:03;12.77;;;4.37;;
20449;SDS011;10384;51.940;8.432;2023-11-21T13:42:39;9.50;;;4.37;;
20449;SDS011;10384;51.940;8.432;2023-11-21T13:45:06;12.23;;;4.57;;
20449;SDS011;10384;51.940;8.432;2023-11-21T13:47:32;11.07;;;4.50;;
20449;SDS011;10384;51.940;8.432;2023-11-21T13:49:59;17.23;;;5.13;;
20449;SDS011;10384;51.940;8.432;2023-11-21T13:52:25;9.63;;;3.83;;
20449;SDS011;10384;51.940;8.432;2023-11-21T13:54:53;8.37;;;4.00;;
20449;SDS011;10384;51.940;8.432;2023-11-21T13:57:19;11.63;;;4.40;;
20449;SDS011;10384;51.940;8.432;2023-11-21T13:59:46;8.40;;;4.60;;
20449;SDS011;10384;51.940;8.432;2023-11-21T14:02:12;9.20;;;4.20;;
20449;SDS011;10384;51.940;8.432;2023-11-21T14:04:44;8.50;;;3.93;;
20449;SDS011;10384;51.940;8.432;2023-11-21T14:07:21;6.73;;;3.60;;
20449;SDS011;10384;51.940;8.432;2023-11-21T14:10:03;9.10;;;3.97;;
20449;SDS011;10384;51.940;8.432;2023-11-21T14:12:31;7.30;;;4.13;;
20449;SDS011;10384;51.940;8.432;2023-11-21T14:15:00;9.40;;;3.80;;
20449;SDS011;10384;51.940;8.432;2023-11-21T14:17:28;8.43;;;3.83;;
20449;SDS011;10384;51.940;8.432;2023-11-21T14:19:54;10.30;;;3.70;;
20449;SDS011;10384;51.940;8.432;2023-11-21T14:22:21;10.00;;;3.50;;
20449;SDS011;10384;51.940;8.432;2023-11-21T14:24:47;8.90;;;4.20;;
20449;SDS011;10384;51.940;8.432;2023-11-21T14:27:15;10.90;;;3.83;;
20449;SDS011;10384;51.940;8.432;2023-11-21T14:29:41;7.63;;;3.70;;
20449;SDS011;10384;51.940;8.432;2023-11-21T14:32:09;8.60;;;4.00;;
20449;SDS011;10384;51.940;8.432;2023-11-21T14:34:36;8.00;;;3.93;;
20449;SDS011;10384;51.940;8.432;2023-11-21T14:37:03;9.20;;;3.93;;
20449;SDS011;10384;51.940;8.432;2023-11-21T14:39:29;8.40;;;3.97;;
20449;SDS011;10384;51.940;8.432;2023-11-21T14:41:55;9.10;;;4.47;;